sensor_id;sensor_type;location;lat;lon;timestamp;P1;durP1;ratioP1;P2;durP2;ratioP2
3543;SDS011;1786;52.870;9.578;2024-01-30T00:01:17;7.60;;;5.63;;
3543;SDS011;1786;52.870;9.578;2024-01-30T00:03:44;5.20;;;4.73;;
3543;SDS011;1786;52.870;9.578;2024-01-30T00:06:11;6.33;;;5.40;;
3543;SDS011;1786;52.870;9.578;2024-01-30T00:08:38;6.30;;;5.50;;
3543;SDS011;1786;52.870;9.578;2024-01-30T00:11:05;11.00;;;6.50;;
3543;SDS011;1786;52.870;9.578;2024-01-30T00:13:34;5.23;;;4.83;;
3543;SDS011;1786;52.870;9.578;2024-01-30T00:16:00;7.60;;;5.50;;
3543;SDS011;1786;52.870;9.578;2024-01-30T00:18:27;9.50;;;6.20;;
3543;SDS011;1786;52.870;9.578;2024-01-30T00:20:54;4.60;;;4.20;;
3543;SDS011;1786;52.870;9.578;2024-01-30T00:23:21;13.07;;;5.60;;
3543;SDS011;1786;52.870;9.578;2024-01-30T00:25:47;8.30;;;6.03;;
3543;SDS011;1786;52.870;9.578;2024-01-30T00:28:14;7.80;;;6.27;;
3543;SDS011;1786;52.870;9.578;2024-01-30T00:30:41;6.13;;;5.50;;
3543;SDS011;1786;52.870;9.578;2024-01-30T00:33:08;6.00;;;5.50;;
3543;SDS011;1786;52.870;9.578;2024-01-30T00:35:36;7.50;;;5.70;;
3543;SDS011;1786;52.870;9.578;2024-01-30T00:38:03;9.73;;;7.40;;
3543;SDS011;1786;52.870;9.578;2024-01-30T00:40:30;12.70;;;7.97;;
3543;SDS011;1786;52.870;9.578;2024-01-30T00:42:56;14.20;;;8.97;;
3543;SDS011;1786;52.870;9.578;2024-01-30T00:45:23;18.03;;;8.27;;
3543;SDS011;1786;52.870;9.578;2024-01-30T00:47:50;12.60;;;7.60;;
3543;SDS011;1786;52.870;9.578;2024-01-30T00:50:16;8.80;;;6.80;;
3543;SDS011;1786;52.870;9.578;2024-01-30T00:52:44;8.30;;;6.70;;
3543;SDS011;1786;52.870;9.578;2024-01-30T00:55:12;7.87;;;7.00;;
3543;SDS011;1786;52.870;9.578;2024-01-30T00:57:39;9.77;;;7.10;;
3543;SDS011;1786;52.870;9.578;2024-01-30T01:00:10;7.73;;;5.53;;
3543;SDS011;1786;52.870;9.578;2024-01-30T01:02:37;13.10;;;6.77;;
3543;SDS011;1786;52.870;9.578;2024-01-30T01:05:05;10.67;;;6.83;;
3543;SDS011;1786;52.870;9.578;2024-01-30T01:07:32;7.50;;;6.00;;
3543;SDS011;1786;52.870;9.578;2024-01-30T01:09:59;8.80;;;6.30;;
3543;SDS011;1786;52.870;9.578;2024-01-30T01:12:26;7.67;;;6.53;;
3543;SDS011;1786;52.870;9.578;2024-01-30T01:14:53;7.60;;;6.77;;
3543;SDS011;1786;52.870;9.578;2024-01-30T01:17:19;9.13;;;7.03;;
3543;SDS011;1786;52.870;9.578;2024-01-30T01:19:46;12.33;;;7.53;;
3543;SDS011;1786;52.870;9.578;2024-01-30T01:22:13;11.30;;;7.13;;
3543;SDS011;1786;52.870;9.578;2024-01-30T01:24:40;9.87;;;6.47;;
3543;SDS011;1786;52.870;9.578;2024-01-30T01:27:06;8.90;;;6.60;;
3543;SDS011;1786;52.870;9.578;2024-01-30T01:29:33;6.23;;;5.57;;
3543;SDS011;1786;52.870;9.578;2024-01-30T01:32:00;7.13;;;5.80;;
3543;SDS011;1786;52.870;9.578;2024-01-30T01:34:27;6.73;;;6.10;;
3543;SDS011;1786;52.870;9.578;2024-01-30T01:36:56;8.07;;;6.87;;
3543;SDS011;1786;52.870;9.578;2024-01-30T01:39:23;8.70;;;6.93;;
3543;SDS011;1786;52.870;9.578;2024-01-30T01:41:50;11.80;;;6.10;;
3543;SDS011;1786;52.870;9.578;2024-01-30T01:44:17;6.70;;;5.73;;
3543;SDS011;1786;52.870;9.578;2024-01-30T01:46:44;7.80;;;5.77;;
3543;SDS011;1786;52.870;9.578;2024-01-30T01:49:12;9.57;;;5.47;;
3543;SDS011;1786;52.870;9.578;2024-01-30T01:51:40;6.20;;;5.03;;
3543;SDS011;1786;52.870;9.578;2024-01-30T01:54:08;8.77;;;6.37;;
3543;SDS011;1786;52.870;9.578;2024-01-30T01:56:35;5.43;;;4.70;;
3543;SDS011;1786;52.870;9.578;2024-01-30T01:59:06;8.60;;;5.53;;
3543;SDS011;1786;52.870;9.578;2024-01-30T02:01:37;9.07;;;6.07;;
3543;SDS011;1786;52.870;9.578;2024-01-30T02:04:06;7.90;;;6.23;;
3543;SDS011;1786;52.870;9.578;2024-01-30T02:06:34;6.90;;;6.20;;
3543;SDS011;1786;52.870;9.578;2024-01-30T02:09:01;9.67;;;5.80;;
3543;SDS011;1786;52.870;9.578;2024-01-30T02:11:28;8.00;;;5.97;;
3543;SDS011;1786;52.870;9.578;2024-01-30T02:13:55;7.00;;;6.30;;
3543;SDS011;1786;52.870;9.578;2024-01-30T02:16:22;9.07;;;6.90;;
3543;SDS011;1786;52.870;9.578;2024-01-30T02:18:49;11.30;;;7.60;;
3543;SDS011;1786;52.870;9.578;2024-01-30T02:21:17;8.30;;;6.53;;
3543;SDS011;1786;52.870;9.578;2024-01-30T02:23:48;9.53;;;6.30;;
3543;SDS011;1786;52.870;9.578;2024-01-30T02:26:16;8.63;;;6.60;;
3543;SDS011;1786;52.870;9.578;2024-01-30T02:28:43;7.50;;;6.17;;
3543;SDS011;1786;52.870;9.578;2024-01-30T02:31:10;9.53;;;7.60;;
3543;SDS011;1786;52.870;9.578;2024-01-30T02:33:36;12.40;;;6.37;;
3543;SDS011;1786;52.870;9.578;2024-01-30T02:36:03;9.50;;;6.93;;
3543;SDS011;1786;52.870;9.578;2024-01-30T02:38:30;12.23;;;7.33;;
3543;SDS011;1786;52.870;9.578;2024-01-30T02:40:57;10.60;;;7.40;;
3543;SDS011;1786;52.870;9.578;2024-01-30T02:43:24;9.87;;;7.30;;
3543;SDS011;1786;52.870;9.578;2024-01-30T02:45:50;9.23;;;8.13;;
3543;SDS011;1786;52.870;9.578;2024-01-30T02:48:17;9.10;;;6.13;;
3543;SDS011;1786;52.870;9.578;2024-01-30T02:50:44;8.80;;;6.70;;
3543;SDS011;1786;52.870;9.578;2024-01-30T02:53:11;8.30;;;6.57;;
3543;SDS011;1786;52.870;9.578;2024-01-30T02:55:37;13.80;;;7.63;;
3543;SDS011;1786;52.870;9.578;2024-01-30T02:58:04;8.20;;;6.73;;
3543;SDS011;1786;52.870;9.578;2024-01-30T03:00:31;7.43;;;6.20;;
3543;SDS011;1786;52.870;9.578;2024-01-30T03:02:58;13.23;;;7.70;;
3543;SDS011;1786;52.870;9.578;2024-01-30T03:05:24;7.93;;;7.07;;
3543;SDS011;1786;52.870;9.578;2024-01-30T03:07:51;10.67;;;6.93;;
3543;SDS011;1786;52.870;9.578;2024-01-30T03:10:18;9.13;;;7.53;;
3543;SDS011;1786;52.870;9.578;2024-01-30T03:12:45;7.73;;;6.60;;
3543;SDS011;1786;52.870;9.578;2024-01-30T03:15:12;11.40;;;7.27;;
3543;SDS011;1786;52.870;9.578;2024-01-30T03:17:39;7.93;;;7.07;;
3543;SDS011;1786;52.870;9.578;2024-01-30T03:20:06;9.67;;;7.20;;
3543;SDS011;1786;52.870;9.578;2024-01-30T03:22:33;7.43;;;6.73;;
3543;SDS011;1786;52.870;9.578;2024-01-30T03:25:00;9.37;;;7.40;;
3543;SDS011;1786;52.870;9.578;2024-01-30T03:27:27;8.97;;;7.07;;
3543;SDS011;1786;52.870;9.578;2024-01-30T03:29:54;13.10;;;7.87;;
3543;SDS011;1786;52.870;9.578;2024-01-30T03:32:20;8.30;;;7.17;;
3543;SDS011;1786;52.870;9.578;2024-01-30T03:34:47;10.73;;;7.50;;
3543;SDS011;1786;52.870;9.578;2024-01-30T03:37:14;10.73;;;7.70;;
3543;SDS011;1786;52.870;9.578;2024-01-30T03:39:41;9.07;;;6.97;;
3543;SDS011;1786;52.870;9.578;2024-01-30T03:42:08;7.70;;;6.93;;
3543;SDS011;1786;52.870;9.578;2024-01-30T03:44:35;9.87;;;7.23;;
3543;SDS011;1786;52.870;9.578;2024-01-30T03:47:01;11.40;;;7.90;;
3543;SDS011;1786;52.870;9.578;2024-01-30T03:49:28;14.70;;;8.40;;
3543;SDS011;1786;52.870;9.578;2024-01-30T03:51:55;7.80;;;6.93;;
3543;SDS011;1786;52.870;9.578;2024-01-30T03:54:22;9.80;;;8.03;;
3543;SDS011;1786;52.870;9.578;2024-01-30T03:56:49;11.60;;;7.90;;
3543;SDS011;1786;52.870;9.578;2024-01-30T03:59:16;11.23;;;7.83;;
3543;SDS011;1786;52.870;9.578;2024-01-30T04:01:46;9.03;;;8.17;;
3543;SDS011;1786;52.870;9.578;2024-01-30T04:04:13;8.90;;;6.57;;
3543;SDS011;1786;52.870;9.578;2024-01-30T04:06:40;9.07;;;7.40;;
3543;SDS011;1786;52.870;9.578;2024-01-30T04:09:07;12.37;;;6.70;;
3543;SDS011;1786;52.870;9.578;2024-01-30T04:11:34;8.60;;;6.90;;
3543;SDS011;1786;52.870;9.578;2024-01-30T04:14:01;11.53;;;7.80;;
3543;SDS011;1786;52.870;9.578;2024-01-30T04:16:28;14.50;;;7.67;;
3543;SDS011;1786;52.870;9.578;2024-01-30T04:18:55;9.03;;;7.30;;
3543;SDS011;1786;52.870;9.578;2024-01-30T04:21:22;11.27;;;7.90;;
3543;SDS011;1786;52.870;9.578;2024-01-30T04:23:50;9.33;;;7.47;;
3543;SDS011;1786;52.870;9.578;2024-01-30T04:26:18;7.27;;;6.53;;
3543;SDS011;1786;52.870;9.578;2024-01-30T04:28:45;9.57;;;7.37;;
3543;SDS011;1786;52.870;9.578;2024-01-30T04:31:12;10.77;;;8.40;;
3543;SDS011;1786;52.870;9.578;2024-01-30T04:33:39;9.70;;;7.93;;
3543;SDS011;1786;52.870;9.578;2024-01-30T04:36:08;10.70;;;7.60;;
3543;SDS011;1786;52.870;9.578;2024-01-30T04:38:37;8.50;;;6.90;;
3543;SDS011;1786;52.870;9.578;2024-01-30T04:41:05;12.90;;;7.10;;
3543;SDS011;1786;52.870;9.578;2024-01-30T04:43:32;8.60;;;7.70;;
3543;SDS011;1786;52.870;9.578;2024-01-30T04:45:59;9.87;;;7.70;;
3543;SDS011;1786;52.870;9.578;2024-01-30T04:48:26;12.40;;;8.73;;
3543;SDS011;1786;52.870;9.578;2024-01-30T04:50:54;18.23;;;8.93;;
3543;SDS011;1786;52.870;9.578;2024-01-30T04:53:22;22.10;;;9.80;;
3543;SDS011;1786;52.870;9.578;2024-01-30T04:55:49;13.93;;;9.73;;
3543;SDS011;1786;52.870;9.578;2024-01-30T04:58:16;12.90;;;9.43;;
3543;SDS011;1786;52.870;9.578;2024-01-30T05:00:43;26.83;;;11.50;;
3543;SDS011;1786;52.870;9.578;2024-01-30T05:03:11;9.70;;;8.60;;
3543;SDS011;1786;52.870;9.578;2024-01-30T05:05:37;11.43;;;9.20;;
3543;SDS011;1786;52.870;9.578;2024-01-30T05:08:05;12.93;;;9.20;;
3543;SDS011;1786;52.870;9.578;2024-01-30T05:10:32;14.83;;;9.70;;
3543;SDS011;1786;52.870;9.578;2024-01-30T05:12:58;11.43;;;8.57;;
3543;SDS011;1786;52.870;9.578;2024-01-30T05:15:25;17.17;;;9.73;;
3543;SDS011;1786;52.870;9.578;2024-01-30T05:17:53;16.77;;;9.80;;
3543;SDS011;1786;52.870;9.578;2024-01-30T05:20:20;14.37;;;10.23;;
3543;SDS011;1786;52.870;9.578;2024-01-30T05:22:47;11.63;;;8.93;;
3543;SDS011;1786;52.870;9.578;2024-01-30T05:25:14;13.33;;;9.10;;
3543;SDS011;1786;52.870;9.578;2024-01-30T05:27:41;15.47;;;9.40;;
3543;SDS011;1786;52.870;9.578;2024-01-30T05:30:09;14.93;;;10.07;;
3543;SDS011;1786;52.870;9.578;2024-01-30T05:32:36;14.13;;;10.47;;
3543;SDS011;1786;52.870;9.578;2024-01-30T05:35:03;9.93;;;8.90;;
3543;SDS011;1786;52.870;9.578;2024-01-30T05:37:30;19.87;;;11.47;;
3543;SDS011;1786;52.870;9.578;2024-01-30T05:39:57;14.47;;;10.10;;
3543;SDS011;1786;52.870;9.578;2024-01-30T05:42:25;13.03;;;10.33;;
3543;SDS011;1786;52.870;9.578;2024-01-30T05:44:52;14.90;;;8.80;;
3543;SDS011;1786;52.870;9.578;2024-01-30T05:47:20;13.30;;;9.40;;
3543;SDS011;1786;52.870;9.578;2024-01-30T05:49:47;17.43;;;9.20;;
3543;SDS011;1786;52.870;9.578;2024-01-30T05:52:14;15.50;;;10.73;;
3543;SDS011;1786;52.870;9.578;2024-01-30T05:54:42;15.13;;;8.77;;
3543;SDS011;1786;52.870;9.578;2024-01-30T05:57:09;15.40;;;9.70;;
3543;SDS011;1786;52.870;9.578;2024-01-30T05:59:36;12.93;;;9.73;;
3543;SDS011;1786;52.870;9.578;2024-01-30T06:02:07;15.20;;;10.30;;
3543;SDS011;1786;52.870;9.578;2024-01-30T06:04:35;14.07;;;8.80;;
3543;SDS011;1786;52.870;9.578;2024-01-30T06:07:02;19.53;;;10.60;;
3543;SDS011;1786;52.870;9.578;2024-01-30T06:09:29;13.60;;;10.70;;
3543;SDS011;1786;52.870;9.578;2024-01-30T06:11:56;16.43;;;10.60;;
3543;SDS011;1786;52.870;9.578;2024-01-30T06:14:24;16.03;;;11.53;;
3543;SDS011;1786;52.870;9.578;2024-01-30T06:16:51;18.63;;;10.97;;
3543;SDS011;1786;52.870;9.578;2024-01-30T06:19:19;14.73;;;10.67;;
3543;SDS011;1786;52.870;9.578;2024-01-30T06:21:46;14.90;;;10.90;;
3543;SDS011;1786;52.870;9.578;2024-01-30T06:24:13;14.50;;;9.33;;
3543;SDS011;1786;52.870;9.578;2024-01-30T06:26:40;12.30;;;9.20;;
3543;SDS011;1786;52.870;9.578;2024-01-30T06:29:07;14.53;;;10.20;;
3543;SDS011;1786;52.870;9.578;2024-01-30T06:31:41;11.73;;;8.87;;
3543;SDS011;1786;52.870;9.578;2024-01-30T06:34:10;14.40;;;10.17;;
3543;SDS011;1786;52.870;9.578;2024-01-30T06:36:39;15.27;;;8.60;;
3543;SDS011;1786;52.870;9.578;2024-01-30T06:39:06;13.00;;;10.07;;
3543;SDS011;1786;52.870;9.578;2024-01-30T06:41:33;18.17;;;9.70;;
3543;SDS011;1786;52.870;9.578;2024-01-30T06:44:04;11.37;;;9.27;;
3543;SDS011;1786;52.870;9.578;2024-01-30T06:46:33;12.30;;;8.63;;
3543;SDS011;1786;52.870;9.578;2024-01-30T06:49:00;16.37;;;10.67;;
3543;SDS011;1786;52.870;9.578;2024-01-30T06:51:27;12.43;;;9.20;;
3543;SDS011;1786;52.870;9.578;2024-01-30T06:53:54;17.47;;;10.00;;
3543;SDS011;1786;52.870;9.578;2024-01-30T06:56:21;13.80;;;10.30;;
3543;SDS011;1786;52.870;9.578;2024-01-30T06:58:48;14.90;;;10.20;;
3543;SDS011;1786;52.870;9.578;2024-01-30T07:01:16;16.57;;;11.50;;
3543;SDS011;1786;52.870;9.578;2024-01-30T07:03:43;15.50;;;10.07;;
3543;SDS011;1786;52.870;9.578;2024-01-30T07:06:10;13.70;;;9.27;;
3543;SDS011;1786;52.870;9.578;2024-01-30T07:08:37;13.00;;;10.20;;
3543;SDS011;1786;52.870;9.578;2024-01-30T07:11:07;18.00;;;10.00;;
3543;SDS011;1786;52.870;9.578;2024-01-30T07:13:34;18.00;;;10.87;;
3543;SDS011;1786;52.870;9.578;2024-01-30T07:16:02;19.57;;;10.80;;
3543;SDS011;1786;52.870;9.578;2024-01-30T07:18:29;15.03;;;10.60;;
3543;SDS011;1786;52.870;9.578;2024-01-30T07:20:56;23.87;;;10.43;;
3543;SDS011;1786;52.870;9.578;2024-01-30T07:23:23;22.17;;;11.60;;
3543;SDS011;1786;52.870;9.578;2024-01-30T07:25:50;17.73;;;11.20;;
3543;SDS011;1786;52.870;9.578;2024-01-30T07:28:18;15.93;;;10.80;;
3543;SDS011;1786;52.870;9.578;2024-01-30T07:30:45;17.90;;;11.20;;
3543;SDS011;1786;52.870;9.578;2024-01-30T07:33:15;17.27;;;10.17;;
3543;SDS011;1786;52.870;9.578;2024-01-30T07:35:42;19.43;;;10.80;;
3543;SDS011;1786;52.870;9.578;2024-01-30T07:38:10;17.77;;;10.70;;
3543;SDS011;1786;52.870;9.578;2024-01-30T07:40:37;18.50;;;11.30;;
3543;SDS011;1786;52.870;9.578;2024-01-30T07:43:04;15.20;;;9.57;;
3543;SDS011;1786;52.870;9.578;2024-01-30T07:45:32;12.37;;;9.30;;
3543;SDS011;1786;52.870;9.578;2024-01-30T07:48:02;18.47;;;10.03;;
3543;SDS011;1786;52.870;9.578;2024-01-30T07:50:29;10.57;;;9.33;;
3543;SDS011;1786;52.870;9.578;2024-01-30T07:52:56;13.43;;;9.43;;
3543;SDS011;1786;52.870;9.578;2024-01-30T07:55:23;12.13;;;9.30;;
3543;SDS011;1786;52.870;9.578;2024-01-30T07:57:54;17.57;;;10.90;;
3543;SDS011;1786;52.870;9.578;2024-01-30T08:00:22;10.10;;;8.13;;
3543;SDS011;1786;52.870;9.578;2024-01-30T08:02:49;14.83;;;8.97;;
3543;SDS011;1786;52.870;9.578;2024-01-30T08:05:16;17.30;;;10.67;;
3543;SDS011;1786;52.870;9.578;2024-01-30T08:07:45;12.60;;;9.83;;
3543;SDS011;1786;52.870;9.578;2024-01-30T08:10:12;14.33;;;10.20;;
3543;SDS011;1786;52.870;9.578;2024-01-30T08:12:40;15.30;;;10.47;;
3543;SDS011;1786;52.870;9.578;2024-01-30T08:15:07;17.83;;;9.60;;
3543;SDS011;1786;52.870;9.578;2024-01-30T08:17:35;14.90;;;10.07;;
3543;SDS011;1786;52.870;9.578;2024-01-30T08:20:02;12.57;;;8.77;;
3543;SDS011;1786;52.870;9.578;2024-01-30T08:22:31;14.77;;;10.07;;
3543;SDS011;1786;52.870;9.578;2024-01-30T08:24:58;12.70;;;8.60;;
3543;SDS011;1786;52.870;9.578;2024-01-30T08:27:29;11.50;;;8.80;;
3543;SDS011;1786;52.870;9.578;2024-01-30T08:29:56;25.03;;;8.70;;
3543;SDS011;1786;52.870;9.578;2024-01-30T08:32:23;14.10;;;8.53;;
3543;SDS011;1786;52.870;9.578;2024-01-30T08:34:50;14.50;;;9.10;;
3543;SDS011;1786;52.870;9.578;2024-01-30T08:37:18;20.03;;;10.03;;
3543;SDS011;1786;52.870;9.578;2024-01-30T08:39:45;13.07;;;9.73;;
3543;SDS011;1786;52.870;9.578;2024-01-30T08:42:13;15.47;;;9.20;;
3543;SDS011;1786;52.870;9.578;2024-01-30T08:44:40;10.10;;;8.30;;
3543;SDS011;1786;52.870;9.578;2024-01-30T08:47:07;15.20;;;9.30;;
3543;SDS011;1786;52.870;9.578;2024-01-30T08:49:34;12.53;;;9.70;;
3543;SDS011;1786;52.870;9.578;2024-01-30T08:52:01;12.10;;;9.13;;
3543;SDS011;1786;52.870;9.578;2024-01-30T08:54:30;13.40;;;9.43;;
3543;SDS011;1786;52.870;9.578;2024-01-30T08:56:56;12.57;;;9.53;;
3543;SDS011;1786;52.870;9.578;2024-01-30T08:59:25;11.50;;;8.50;;
3543;SDS011;1786;52.870;9.578;2024-01-30T09:01:52;12.20;;;9.17;;
3543;SDS011;1786;52.870;9.578;2024-01-30T09:04:37;13.50;;;9.30;;
3543;SDS011;1786;52.870;9.578;2024-01-30T09:07:05;15.43;;;9.30;;
3543;SDS011;1786;52.870;9.578;2024-01-30T09:09:37;18.37;;;10.70;;
3543;SDS011;1786;52.870;9.578;2024-01-30T09:12:06;14.87;;;10.50;;
3543;SDS011;1786;52.870;9.578;2024-01-30T09:14:37;14.43;;;10.33;;
3543;SDS011;1786;52.870;9.578;2024-01-30T09:17:04;12.73;;;9.00;;
3543;SDS011;1786;52.870;9.578;2024-01-30T09:19:31;11.17;;;9.20;;
3543;SDS011;1786;52.870;9.578;2024-01-30T09:21:59;12.57;;;8.97;;
3543;SDS011;1786;52.870;9.578;2024-01-30T09:24:27;17.23;;;8.93;;
3543;SDS011;1786;52.870;9.578;2024-01-30T09:26:54;10.90;;;8.27;;
3543;SDS011;1786;52.870;9.578;2024-01-30T09:29:22;11.60;;;9.30;;
3543;SDS011;1786;52.870;9.578;2024-01-30T09:31:49;10.23;;;9.03;;
3543;SDS011;1786;52.870;9.578;2024-01-30T09:34:16;10.80;;;8.10;;
3543;SDS011;1786;52.870;9.578;2024-01-30T09:36:44;13.87;;;8.47;;
3543;SDS011;1786;52.870;9.578;2024-01-30T09:39:11;13.30;;;9.10;;
3543;SDS011;1786;52.870;9.578;2024-01-30T09:41:43;8.83;;;7.90;;
3543;SDS011;1786;52.870;9.578;2024-01-30T09:44:18;17.40;;;9.00;;
3543;SDS011;1786;52.870;9.578;2024-01-30T09:46:47;13.10;;;8.37;;
3543;SDS011;1786;52.870;9.578;2024-01-30T09:49:15;12.63;;;8.50;;
3543;SDS011;1786;52.870;9.578;2024-01-30T09:54:49;8.20;;;7.40;;
3543;SDS011;1786;52.870;9.578;2024-01-30T09:57:16;11.73;;;7.73;;
3543;SDS011;1786;52.870;9.578;2024-01-30T09:59:42;12.70;;;8.27;;
3543;SDS011;1786;52.870;9.578;2024-01-30T10:02:10;13.93;;;8.20;;
3543;SDS011;1786;52.870;9.578;2024-01-30T10:04:37;10.53;;;8.37;;
3543;SDS011;1786;52.870;9.578;2024-01-30T10:07:04;12.20;;;7.57;;
3543;SDS011;1786;52.870;9.578;2024-01-30T10:09:33;9.63;;;8.20;;
3543;SDS011;1786;52.870;9.578;2024-01-30T10:12:01;9.63;;;6.83;;
3543;SDS011;1786;52.870;9.578;2024-01-30T10:14:30;14.13;;;8.40;;
3543;SDS011;1786;52.870;9.578;2024-01-30T10:16:57;11.40;;;8.10;;
3543;SDS011;1786;52.870;9.578;2024-01-30T10:19:24;8.03;;;7.23;;
3543;SDS011;1786;52.870;9.578;2024-01-30T10:21:51;9.17;;;7.77;;
3543;SDS011;1786;52.870;9.578;2024-01-30T10:24:18;9.60;;;8.17;;
3543;SDS011;1786;52.870;9.578;2024-01-30T10:26:45;14.33;;;8.23;;
3543;SDS011;1786;52.870;9.578;2024-01-30T10:29:11;11.20;;;7.77;;
3543;SDS011;1786;52.870;9.578;2024-01-30T10:31:38;10.03;;;7.43;;
3543;SDS011;1786;52.870;9.578;2024-01-30T10:34:06;11.13;;;7.97;;
3543;SDS011;1786;52.870;9.578;2024-01-30T10:36:46;9.20;;;7.80;;
3543;SDS011;1786;52.870;9.578;2024-01-30T10:39:17;13.13;;;7.90;;
3543;SDS011;1786;52.870;9.578;2024-01-30T10:41:44;11.30;;;7.97;;
3543;SDS011;1786;52.870;9.578;2024-01-30T10:44:16;11.80;;;6.47;;
3543;SDS011;1786;52.870;9.578;2024-01-30T10:46:46;10.33;;;8.67;;
3543;SDS011;1786;52.870;9.578;2024-01-30T10:49:19;10.20;;;9.17;;
3543;SDS011;1786;52.870;9.578;2024-01-30T10:51:48;13.90;;;8.50;;
3543;SDS011;1786;52.870;9.578;2024-01-30T10:54:16;9.47;;;8.17;;
3543;SDS011;1786;52.870;9.578;2024-01-30T10:56:44;10.20;;;8.47;;
3543;SDS011;1786;52.870;9.578;2024-01-30T10:59:11;15.13;;;8.13;;
3543;SDS011;1786;52.870;9.578;2024-01-30T11:01:40;11.13;;;8.00;;
3543;SDS011;1786;52.870;9.578;2024-01-30T11:04:07;8.40;;;7.47;;
3543;SDS011;1786;52.870;9.578;2024-01-30T11:06:40;10.83;;;7.80;;
3543;SDS011;1786;52.870;9.578;2024-01-30T11:09:10;10.43;;;7.80;;
3543;SDS011;1786;52.870;9.578;2024-01-30T11:11:49;12.43;;;7.60;;
3543;SDS011;1786;52.870;9.578;2024-01-30T11:14:15;7.40;;;6.70;;
3543;SDS011;1786;52.870;9.578;2024-01-30T11:16:42;9.47;;;6.40;;
3543;SDS011;1786;52.870;9.578;2024-01-30T11:19:12;10.43;;;7.10;;
3543;SDS011;1786;52.870;9.578;2024-01-30T11:21:41;8.63;;;7.73;;
3543;SDS011;1786;52.870;9.578;2024-01-30T11:24:08;10.03;;;7.70;;
3543;SDS011;1786;52.870;9.578;2024-01-30T11:26:35;10.90;;;7.57;;
3543;SDS011;1786;52.870;9.578;2024-01-30T11:29:07;13.07;;;7.30;;
3543;SDS011;1786;52.870;9.578;2024-01-30T11:31:34;10.50;;;7.90;;
3543;SDS011;1786;52.870;9.578;2024-01-30T11:34:01;11.80;;;7.67;;
3543;SDS011;1786;52.870;9.578;2024-01-30T11:36:28;9.47;;;6.77;;
3543;SDS011;1786;52.870;9.578;2024-01-30T11:38:55;7.43;;;6.60;;
3543;SDS011;1786;52.870;9.578;2024-01-30T11:41:23;11.23;;;7.30;;
3543;SDS011;1786;52.870;9.578;2024-01-30T11:43:53;7.80;;;7.00;;
3543;SDS011;1786;52.870;9.578;2024-01-30T11:46:20;10.50;;;8.30;;
3543;SDS011;1786;52.870;9.578;2024-01-30T11:48:47;9.63;;;7.27;;
3543;SDS011;1786;52.870;9.578;2024-01-30T11:51:14;13.03;;;6.60;;
3543;SDS011;1786;52.870;9.578;2024-01-30T11:53:41;14.73;;;8.10;;
3543;SDS011;1786;52.870;9.578;2024-01-30T11:56:08;10.37;;;6.93;;
3543;SDS011;1786;52.870;9.578;2024-01-30T11:58:35;9.73;;;6.83;;
3543;SDS011;1786;52.870;9.578;2024-01-30T12:01:01;9.00;;;7.30;;
3543;SDS011;1786;52.870;9.578;2024-01-30T12:03:28;9.70;;;7.17;;
3543;SDS011;1786;52.870;9.578;2024-01-30T12:05:58;9.70;;;6.70;;
3543;SDS011;1786;52.870;9.578;2024-01-30T12:08:26;11.50;;;7.47;;
3543;SDS011;1786;52.870;9.578;2024-01-30T12:10:57;7.73;;;6.70;;
3543;SDS011;1786;52.870;9.578;2024-01-30T12:13:32;9.97;;;7.70;;
3543;SDS011;1786;52.870;9.578;2024-01-30T12:15:59;8.10;;;6.67;;
3543;SDS011;1786;52.870;9.578;2024-01-30T12:18:27;9.30;;;6.90;;
3543;SDS011;1786;52.870;9.578;2024-01-30T12:20:58;7.03;;;6.40;;
3543;SDS011;1786;52.870;9.578;2024-01-30T12:23:29;16.07;;;7.50;;
3543;SDS011;1786;52.870;9.578;2024-01-30T12:25:56;8.10;;;6.57;;
3543;SDS011;1786;52.870;9.578;2024-01-30T12:28:23;10.33;;;6.70;;
3543;SDS011;1786;52.870;9.578;2024-01-30T12:30:50;9.47;;;6.40;;
3543;SDS011;1786;52.870;9.578;2024-01-30T12:33:20;9.50;;;7.07;;
3543;SDS011;1786;52.870;9.578;2024-01-30T12:35:47;6.77;;;5.53;;
3543;SDS011;1786;52.870;9.578;2024-01-30T12:38:27;7.23;;;6.60;;
3543;SDS011;1786;52.870;9.578;2024-01-30T12:40:54;6.43;;;5.77;;
3543;SDS011;1786;52.870;9.578;2024-01-30T12:43:23;9.33;;;7.23;;
3543;SDS011;1786;52.870;9.578;2024-01-30T12:46:03;7.73;;;6.93;;
3543;SDS011;1786;52.870;9.578;2024-01-30T12:48:30;8.33;;;6.73;;
3543;SDS011;1786;52.870;9.578;2024-01-30T12:50:57;8.73;;;6.97;;
3543;SDS011;1786;52.870;9.578;2024-01-30T12:53:24;10.07;;;6.97;;
3543;SDS011;1786;52.870;9.578;2024-01-30T12:55:51;8.60;;;6.30;;
3543;SDS011;1786;52.870;9.578;2024-01-30T12:58:18;7.27;;;6.57;;
3543;SDS011;1786;52.870;9.578;2024-01-30T13:00:45;7.33;;;5.80;;
3543;SDS011;1786;52.870;9.578;2024-01-30T13:03:11;8.53;;;7.07;;
3543;SDS011;1786;52.870;9.578;2024-01-30T13:05:39;6.87;;;6.23;;
3543;SDS011;1786;52.870;9.578;2024-01-30T13:08:05;7.40;;;6.70;;
3543;SDS011;1786;52.870;9.578;2024-01-30T13:10:32;8.20;;;6.20;;
3543;SDS011;1786;52.870;9.578;2024-01-30T13:12:59;9.13;;;6.83;;
3543;SDS011;1786;52.870;9.578;2024-01-30T13:15:26;6.90;;;6.20;;
3543;SDS011;1786;52.870;9.578;2024-01-30T13:17:53;8.43;;;6.30;;
3543;SDS011;1786;52.870;9.578;2024-01-30T13:20:21;10.93;;;6.30;;
3543;SDS011;1786;52.870;9.578;2024-01-30T13:22:48;9.83;;;6.50;;
3543;SDS011;1786;52.870;9.578;2024-01-30T13:25:16;6.43;;;5.80;;
3543;SDS011;1786;52.870;9.578;2024-01-30T13:27:43;8.47;;;6.63;;
3543;SDS011;1786;52.870;9.578;2024-01-30T13:30:10;8.27;;;6.33;;
3543;SDS011;1786;52.870;9.578;2024-01-30T13:32:37;8.40;;;6.00;;
3543;SDS011;1786;52.870;9.578;2024-01-30T13:35:04;7.67;;;6.30;;
3543;SDS011;1786;52.870;9.578;2024-01-30T13:37:31;9.90;;;6.63;;
3543;SDS011;1786;52.870;9.578;2024-01-30T13:39:58;9.70;;;7.57;;
3543;SDS011;1786;52.870;9.578;2024-01-30T13:42:27;8.40;;;6.43;;
3543;SDS011;1786;52.870;9.578;2024-01-30T13:44:53;9.17;;;6.50;;
3543;SDS011;1786;52.870;9.578;2024-01-30T13:47:20;7.57;;;5.37;;
3543;SDS011;1786;52.870;9.578;2024-01-30T13:49:48;9.00;;;6.53;;
3543;SDS011;1786;52.870;9.578;2024-01-30T13:52:15;8.87;;;6.47;;
3543;SDS011;1786;52.870;9.578;2024-01-30T13:54:42;8.47;;;6.23;;
3543;SDS011;1786;52.870;9.578;2024-01-30T13:57:09;6.17;;;5.57;;
3543;SDS011;1786;52.870;9.578;2024-01-30T13:59:37;9.40;;;6.87;;
3543;SDS011;1786;52.870;9.578;2024-01-30T14:02:05;9.00;;;6.10;;
3543;SDS011;1786;52.870;9.578;2024-01-30T14:04:33;8.93;;;6.03;;
3543;SDS011;1786;52.870;9.578;2024-01-30T14:07:00;10.00;;;5.80;;
3543;SDS011;1786;52.870;9.578;2024-01-30T14:09:31;6.33;;;5.70;;
3543;SDS011;1786;52.870;9.578;2024-01-30T14:11:59;7.57;;;4.83;;
3543;SDS011;1786;52.870;9.578;2024-01-30T14:14:25;6.20;;;5.70;;
3543;SDS011;1786;52.870;9.578;2024-01-30T14:16:52;8.03;;;5.80;;
3543;SDS011;1786;52.870;9.578;2024-01-30T14:19:19;11.53;;;5.70;;
3543;SDS011;1786;52.870;9.578;2024-01-30T14:21:46;10.47;;;7.23;;
3543;SDS011;1786;52.870;9.578;2024-01-30T14:24:13;7.03;;;6.30;;
3543;SDS011;1786;52.870;9.578;2024-01-30T14:26:39;7.80;;;6.57;;
3543;SDS011;1786;52.870;9.578;2024-01-30T14:29:06;5.87;;;5.13;;
3543;SDS011;1786;52.870;9.578;2024-01-30T14:31:33;7.70;;;5.10;;
3543;SDS011;1786;52.870;9.578;2024-01-30T14:34:00;8.63;;;6.97;;
3543;SDS011;1786;52.870;9.578;2024-01-30T14:36:27;5.83;;;4.70;;
3543;SDS011;1786;52.870;9.578;2024-01-30T14:38:55;11.60;;;5.93;;
3543;SDS011;1786;52.870;9.578;2024-01-30T14:41:21;9.10;;;6.20;;
3543;SDS011;1786;52.870;9.578;2024-01-30T14:43:49;7.40;;;5.93;;
3543;SDS011;1786;52.870;9.578;2024-01-30T14:46:16;7.67;;;5.80;;
3543;SDS011;1786;52.870;9.578;2024-01-30T14:48:43;14.47;;;6.67;;
3543;SDS011;1786;52.870;9.578;2024-01-30T14:51:10;8.77;;;5.73;;
3543;SDS011;1786;52.870;9.578;2024-01-30T14:53:37;7.30;;;5.20;;
3543;SDS011;1786;52.870;9.578;2024-01-30T14:56:03;10.40;;;6.70;;
3543;SDS011;1786;52.870;9.578;2024-01-30T14:58:31;6.10;;;5.50;;
3543;SDS011;1786;52.870;9.578;2024-01-30T15:00:58;8.93;;;5.97;;
3543;SDS011;1786;52.870;9.578;2024-01-30T15:03:26;10.60;;;6.60;;
3543;SDS011;1786;52.870;9.578;2024-01-30T15:05:55;13.10;;;7.47;;
3543;SDS011;1786;52.870;9.578;2024-01-30T15:08:22;11.87;;;7.70;;
3543;SDS011;1786;52.870;9.578;2024-01-30T15:10:49;6.33;;;5.57;;